Time;durP1;ratioP1;P1;durP2;ratioP2;P2;SDS_P1;SDS_P2;PMS_P1;PMS_P2;Temp;Humidity;BMP_temperature;BMP_pressure;BME280_temperature;BME280_humidity;BME280_pressure;Samples;Min_cycle;Max_cycle;Signal;HPM_P1;HPM_P2
2023/10/17 00:02:22;;;;;;;9.70;5.10;;;;;;;10.48;60.15;100054.76;108080;1254;70218;-66
2023/10/17 00:04:49;;;;;;;7.50;4.90;;;;;;;10.41;60.41;100054.15;108071;1254;73279;-66
2023/10/17 00:07:16;;;;;;;9.90;5.10;;;;;;;10.61;59.94;100048.80;108055;1254;60896;-66
2023/10/17 00:09:43;;;;;;;8.40;4.50;;;;;;;10.67;59.65;100050.66;108070;1254;60191;-65
2023/10/17 00:13:06;;;;;;;10.50;4.90;;;;;;;10.75;59.35;100058.64;108071;1254;73651;-66
2023/10/17 00:17:23;;;;;;;11.10;4.80;;;;;;;10.74;59.12;100053.77;108035;1254;72692;-66
2023/10/17 00:19:50;;;;;;;10.60;4.60;;;;;;;10.55;59.70;100051.33;108048;1254;60962;-65
2023/10/17 00:22:23;;;;;;;10.20;5.30;;;;;;;10.58;59.59;100054.17;108063;1257;60240;-65
2023/10/17 00:25:09;;;;;;;9.90;4.90;;;;;;;10.58;59.49;100052.09;108024;1254;74111;-65
2023/10/17 00:27:37;;;;;;;12.60;5.10;;;;;;;10.60;59.45;100051.13;108036;1257;70402;-66
2023/10/17 00:30:04;;;;;;;8.20;4.30;;;;;;;10.57;59.61;100055.81;108058;1254;72490;-65
2023/10/17 00:32:35;;;;;;;8.80;4.90;;;;;;;10.62;59.42;100056.86;108100;1254;60337;-66
2023/10/17 00:35:12;;;;;;;9.80;4.80;;;;;;;10.59;59.43;100058.89;108031;1254;60522;-65
2023/10/17 00:37:39;;;;;;;6.50;4.20;;;;;;;10.67;59.18;100058.94;108099;1254;73601;-66
2023/10/17 00:40:26;;;;;;;7.10;4.20;;;;;;;10.64;59.10;100054.67;108069;1254;68881;-65
2023/10/17 00:42:53;;;;;;;7.30;4.60;;;;;;;10.58;59.20;100056.98;107997;1254;71655;-65
2023/10/17 00:45:19;;;;;;;11.10;5.00;;;;;;;10.57;59.21;100064.23;107977;1254;60374;-66
2023/10/17 00:47:46;;;;;;;9.40;5.10;;;;;;;10.59;59.04;100062.75;108037;1254;60303;-66
2023/10/17 00:50:13;;;;;;;7.30;4.70;;;;;;;10.52;59.11;100064.07;107952;1255;59655;-66
2023/10/17 00:52:40;;;;;;;8.40;5.30;;;;;;;10.52;59.21;100062.67;108001;1254;70768;-65
2023/10/17 00:55:11;;;;;;;8.40;4.90;;;;;;;10.73;58.57;100064.13;107982;1254;72324;-65
2023/10/17 00:57:39;;;;;;;9.80;5.20;;;;;;;10.78;58.43;100070.63;108041;1253;60809;-65
2023/10/17 01:02:57;;;;;;;9.00;4.90;;;;;;;10.69;58.58;100071.70;108107;1254;74160;-67
2023/10/17 01:05:26;;;;;;;9.30;5.20;;;;;;;10.52;59.17;100076.17;108069;1254;70189;-65
2023/10/17 01:07:52;;;;;;;9.60;4.50;;;;;;;10.47;59.26;100080.56;108061;1254;73090;-65
2023/10/17 01:10:24;;;;;;;9.00;4.70;;;;;;;10.27;59.86;100084.63;108061;1256;61205;-65
2023/10/17 01:13:00;;;;;;;10.00;5.40;;;;;;;10.02;60.71;100086.58;108093;1254;60431;-65
2023/10/17 01:15:27;;;;;;;8.10;4.90;;;;;;;9.97;60.86;100087.27;108036;1254;74452;-65
2023/10/17 01:17:55;;;;;;;9.40;5.40;;;;;;;9.87;61.10;100093.03;108049;1254;70178;-66
2023/10/17 01:20:22;;;;;;;9.50;4.80;;;;;;;10.07;60.72;100094.83;108101;1253;72361;-65
2023/10/17 01:22:49;;;;;;;10.60;5.00;;;;;;;10.27;60.20;100098.16;108054;1254;61560;-64
2023/10/17 01:25:26;;;;;;;8.60;4.80;;;;;;;10.41;60.06;100095.73;108044;1254;60087;-64
2023/10/17 01:27:53;;;;;;;11.60;5.60;;;;;;;10.50;60.02;100097.33;108021;1254;73724;-66
2023/10/17 01:30:23;;;;;;;9.80;4.90;;;;;;;10.57;60.04;100097.22;108051;1254;70181;-64
2023/10/17 01:32:51;;;;;;;8.10;5.00;;;;;;;10.69;59.91;100097.30;108050;1254;72548;-65
2023/10/17 01:35:21;;;;;;;9.80;5.40;;;;;;;10.65;59.91;100101.84;108062;1254;60358;-64
2023/10/17 01:37:47;;;;;;;8.60;5.10;;;;;;;10.58;60.01;100106.14;108067;1254;59202;-65
2023/10/17 01:40:26;;;;;;;10.50;5.10;;;;;;;10.56;60.01;100109.59;108095;1254;73993;-65
2023/10/17 01:42:53;;;;;;;7.80;4.90;;;;;;;10.52;59.83;100111.63;108016;1254;71318;-66
2023/10/17 01:45:22;;;;;;;5.30;3.90;;;;;;;10.49;59.77;100118.27;108042;1254;72527;-66
2023/10/17 01:47:52;;;;;;;9.70;4.70;;;;;;;10.49;59.53;100122.48;108077;1254;61117;-65
2023/10/17 01:50:20;;;;;;;5.60;3.80;;;;;;;10.38;59.74;100121.65;108025;1254;60165;-66
2023/10/17 01:52:47;;;;;;;9.30;4.80;;;;;;;10.59;59.31;100124.17;108106;1254;74032;-66
2023/10/17 01:55:15;;;;;;;10.50;5.10;;;;;;;10.64;59.08;100129.83;108037;1254;70207;-66
2023/10/17 01:57:44;;;;;;;8.70;5.00;;;;;;;10.63;58.91;100135.27;108064;1254;72676;-66
2023/10/17 02:00:57;;;;;;;8.90;5.20;;;;;;;10.60;58.89;100134.84;108111;1254;60333;-67
2023/10/17 02:03:03;;;;;;;9.50;4.50;;;;;;;10.63;58.77;100138.09;108002;1254;60441;-66
2023/10/17 02:05:30;;;;;;;9.00;5.20;;;;;;;10.60;58.96;100141.20;108017;1254;73775;-66
2023/10/17 02:07:57;;;;;;;10.80;5.60;;;;;;;10.66;58.65;100141.33;108053;1254;60290;-65
2023/10/17 02:10:29;;;;;;;10.90;5.20;;;;;;;10.63;58.74;100143.20;107980;1256;72541;-65
2023/10/17 02:12:56;;;;;;;7.90;4.00;;;;;;;10.61;58.63;100142.89;108015;1254;59915;-65
2023/10/17 02:15:23;;;;;;;10.70;4.80;;;;;;;10.57;58.73;100147.11;108023;1254;60292;-66
2023/10/17 02:17:51;;;;;;;9.10;5.00;;;;;;;10.47;58.92;100147.45;108001;1254;73706;-65
2023/10/17 02:20:30;;;;;;;9.80;5.10;;;;;;;10.45;58.89;100150.89;108088;1254;68776;-65
2023/10/17 02:23:01;;;;;;;8.00;4.40;;;;;;;10.27;59.49;100156.39;108052;1254;72491;-65
2023/10/17 02:25:34;;;;;;;8.10;4.30;;;;;;;10.39;59.37;100153.52;108063;1254;61215;-65
2023/10/17 02:28:01;;;;;;;8.80;4.40;;;;;;;10.48;59.26;100156.38;108012;1254;59071;-66
2023/10/17 02:30:28;;;;;;;10.30;4.80;;;;;;;10.37;59.80;100162.21;108086;1254;72677;-65
2023/10/17 02:32:55;;;;;;;8.60;4.80;;;;;;;10.36;60.00;100164.89;108065;1254;69864;-65
2023/10/17 02:35:36;;;;;;;8.90;4.70;;;;;;;10.35;59.99;100163.88;108091;1254;72678;-65
2023/10/17 02:38:05;;;;;;;;;;;;;;;10.20;60.28;100168.57;108129;1254;61156;-65
2023/10/17 02:40:38;;;;;;;7.60;4.30;;;;;;;9.80;61.35;100170.09;107978;1259;60392;-66
2023/10/17 02:43:05;;;;;;;8.10;4.20;;;;;;;9.75;61.45;100172.02;107974;1254;72914;-66
2023/10/17 02:45:31;;;;;;;9.00;4.00;;;;;;;9.73;61.45;100178.58;108012;1254;58994;-67
2023/10/17 02:47:58;;;;;;;10.20;4.50;;;;;;;9.77;61.18;100179.64;108019;1254;72915;-66
2023/10/17 02:52:59;;;;;;;10.30;4.50;;;;;;;9.92;61.11;100183.02;107976;1259;60520;-65
2023/10/17 02:55:25;;;;;;;7.10;4.00;;;;;;;10.00;60.85;100184.70;108021;1254;73731;-66
2023/10/17 02:57:52;;;;;;;8.60;4.80;;;;;;;9.97;61.14;100188.14;108038;1254;70353;-65
2023/10/17 03:00:21;;;;;;;8.00;4.90;;;;;;;10.07;61.22;100190.41;108005;1254;72416;-66
2023/10/17 03:02:50;;;;;;;10.50;4.60;;;;;;;10.00;61.55;100187.16;108084;1254;60268;-66
2023/10/17 03:05:18;;;;;;;6.10;3.90;;;;;;;10.10;61.45;100187.31;108051;1259;60312;-65
2023/10/17 03:07:49;;;;;;;6.70;4.10;;;;;;;10.21;61.11;100192.02;108112;1254;73843;-65
2023/10/17 03:10:20;;;;;;;6.00;4.00;;;;;;;10.33;60.74;100192.35;108070;1254;70746;-65
2023/10/17 03:12:55;;;;;;;11.80;4.70;;;;;;;10.51;60.34;100193.34;108012;1259;71136;-65
2023/10/17 03:15:23;;;;;;;6.70;4.00;;;;;;;10.59;60.04;100192.48;108152;1253;60939;-65
2023/10/17 03:18:00;;;;;;;6.60;3.90;;;;;;;10.56;60.02;100191.52;108078;1254;60757;-65
2023/10/17 03:20:41;;;;;;;8.70;4.10;;;;;;;10.46;60.15;100192.26;108073;1254;73549;-65
2023/10/17 03:23:09;;;;;;;9.40;4.80;;;;;;;10.35;60.21;100196.30;108064;1254;69348;-66
2023/10/17 03:25:39;;;;;;;9.50;3.90;;;;;;;10.46;59.91;100203.14;107971;1254;71967;-66
2023/10/17 03:28:13;;;;;;;5.00;4.00;;;;;;;10.56;59.60;100201.22;108017;1254;61157;-65
2023/10/17 03:30:40;;;;;;;8.70;4.70;;;;;;;10.68;59.18;100206.90;108001;1259;61236;-66
2023/10/17 03:33:14;;;;;;;11.30;4.80;;;;;;;10.65;58.89;100209.66;108004;1258;72401;-66
2023/10/17 03:35:56;;;;;;;7.80;4.60;;;;;;;10.61;58.70;100205.76;107989;1254;69497;-66
2023/10/17 03:38:26;;;;;;;6.90;5.00;;;;;;;10.35;59.24;100206.68;108076;1254;71747;-66
2023/10/17 03:40:54;;;;;;;10.40;4.90;;;;;;;10.28;59.50;100206.38;108011;1254;60888;-66
2023/10/17 03:43:29;;;;;;;9.00;4.50;;;;;;;10.23;59.56;100210.92;107963;1254;60408;-65
2023/10/17 03:46:05;;;;;;;7.80;5.00;;;;;;;10.32;59.41;100211.14;108002;1254;73553;-65
2023/10/17 03:48:36;;;;;;;10.60;5.80;;;;;;;10.53;58.67;100215.19;108039;1254;69401;-66
2023/10/17 03:51:08;;;;;;;7.40;4.70;;;;;;;10.42;58.89;100215.56;108075;1258;72455;-65
2023/10/17 03:53:42;;;;;;;7.90;5.50;;;;;;;10.26;59.49;100219.08;108096;1254;60338;-66
2023/10/17 03:56:11;;;;;;;8.50;5.00;;;;;;;10.27;59.41;100220.23;108021;1254;60216;-65
2023/10/17 03:58:49;;;;;;;7.90;4.80;;;;;;;10.16;59.57;100220.11;108115;1254;74291;-66
2023/10/17 04:01:18;;;;;;;10.00;5.80;;;;;;;10.19;59.81;100223.52;108089;1254;71162;-65
2023/10/17 04:03:46;;;;;;;8.30;5.30;;;;;;;10.23;59.61;100226.16;108130;1254;72323;-67
2023/10/17 04:08:48;;;;;;;8.30;5.40;;;;;;;10.07;60.06;100235.48;108011;1254;60389;-65
2023/10/17 04:11:18;;;;;;;13.20;5.50;;;;;;;10.00;60.45;100233.27;108017;1254;72691;-66
2023/10/17 04:13:49;;;;;;;10.40;5.40;;;;;;;10.09;60.24;100235.43;108004;1258;70428;-66
2023/10/17 04:16:17;;;;;;;12.50;5.80;;;;;;;10.27;59.69;100236.58;108032;1254;71422;-67
2023/10/17 04:18:51;;;;;;;9.40;5.60;;;;;;;10.36;59.57;100240.34;107974;1258;61222;-66
2023/10/17 04:21:26;;;;;;;11.30;5.90;;;;;;;10.45;59.48;100244.77;108044;1254;60277;-66
2023/10/17 04:23:59;;;;;;;10.70;6.00;;;;;;;10.32;59.66;100253.65;108090;1254;73706;-67
2023/10/17 04:26:34;;;;;;;10.90;6.00;;;;;;;10.42;59.54;100255.59;108068;1254;70207;-67
2023/10/17 04:29:11;;;;;;;10.50;5.80;;;;;;;10.55;59.21;100261.47;108081;1254;72450;-65
2023/10/17 04:31:39;;;;;;;10.10;5.90;;;;;;;10.56;59.23;100263.89;108084;1254;60305;-67
2023/10/17 04:34:14;;;;;;;10.60;5.60;;;;;;;10.58;59.02;100270.48;108165;1254;60190;-66
2023/10/17 04:36:41;;;;;;;11.10;7.00;;;;;;;10.50;59.24;100279.52;108017;1254;73616;-66
2023/10/17 04:44:22;;;;;;;8.10;5.70;;;;;;;10.41;59.67;100292.12;108019;1254;60868;-66
2023/10/17 04:47:38;;;;;;;9.00;5.40;;;;;;;10.43;59.79;100295.38;108017;1254;60185;-66
2023/10/17 04:49:36;;;;;;;9.80;6.00;;;;;;;10.40;60.08;100299.18;108015;1254;73105;-65
2023/10/17 04:52:09;;;;;;;11.80;5.90;;;;;;;10.47;59.76;100303.15;108101;1254;69494;-66
2023/10/17 04:57:06;;;;;;;8.90;5.90;;;;;;;10.72;59.30;100305.13;108104;1258;61349;-66
2023/10/17 06:16:54;;;;;;;3.70;2.40;;;;;;;20.48;35.88;100356.94;107975;1257;71505;-67
2023/10/17 06:19:24;;;;;;;7.20;2.20;;;;;;;20.78;35.74;100363.23;107997;1255;60423;-66
2023/10/17 06:32:48;;;;;;;3.40;2.20;;;;;;;21.09;33.47;100368.73;107927;1257;60391;-67
2023/10/17 06:35:20;;;;;;;3.80;2.20;;;;;;;21.05;33.43;100373.47;108027;1258;60445;-67
2023/10/17 06:37:49;;;;;;;3.90;2.40;;;;;;;21.03;33.13;100377.96;107962;1257;73933;-67
2023/10/17 06:40:17;;;;;;;3.40;2.30;;;;;;;21.07;33.35;100378.90;108002;1257;70184;-67
2023/10/17 06:42:49;;;;;;;4.30;2.60;;;;;;;21.18;32.98;100381.06;108031;1254;72538;-67
2023/10/17 06:45:18;;;;;;;5.50;2.40;;;;;;;21.06;32.69;100380.75;108081;1254;60424;-67
2023/10/17 06:47:57;;;;;;;6.90;2.50;;;;;;;20.87;33.01;100382.20;108102;1254;60421;-67
2023/10/17 06:53:15;;;;;;;7.60;3.10;;;;;;;20.09;33.91;100391.34;108029;1254;70436;-66
2023/10/17 06:55:47;;;;;;;8.00;2.40;;;;;;;19.88;34.08;100398.36;108018;1254;72646;-67
2023/10/17 06:58:15;;;;;;;5.20;2.10;;;;;;;19.43;34.35;100401.48;108100;1254;60302;-66
2023/10/17 07:00:53;;;;;;;9.80;2.40;;;;;;;19.61;34.82;100402.25;108108;1254;59250;-67
2023/10/17 07:03:26;;;;;;;9.60;2.40;;;;;;;19.76;34.33;100406.52;108093;1254;73699;-66
2023/10/17 07:06:03;;;;;;;7.80;2.60;;;;;;;19.51;33.75;100406.80;108037;1254;69062;-66
2023/10/17 07:08:36;;;;;;;8.40;2.60;;;;;;;19.26;34.47;100414.27;108046;1258;72717;-66
2023/10/17 07:11:02;;;;;;;7.10;2.40;;;;;;;18.77;35.19;100414.90;108050;1254;60309;-66
2023/10/17 07:14:10;;;;;;;3.10;2.20;;;;;;;18.34;35.66;100422.86;108071;1254;60494;-66
2023/10/17 07:24:34;;;;;;;11.00;2.80;;;;;;;17.44;37.04;100436.41;108053;1254;60299;-66
2023/10/17 07:27:11;;;;;;;4.40;2.20;;;;;;;17.96;37.26;100443.17;108087;1254;60357;-66
2023/10/17 07:29:38;;;;;;;2.70;1.80;;;;;;;18.35;35.40;100439.65;108061;1254;73788;-66
2023/10/17 07:32:09;;;;;;;4.30;2.10;;;;;;;18.59;35.25;100439.90;108047;1254;70331;-66
2023/10/17 07:34:36;;;;;;;5.20;2.40;;;;;;;18.60;34.54;100439.84;108072;1254;71946;-67
2023/10/17 07:39:59;;;;;;;3.80;2.30;;;;;;;18.15;35.00;100446.44;108044;1254;60116;-66
2023/10/17 07:42:31;;;;;;;7.00;2.70;;;;;;;17.90;35.37;100450.52;108034;1254;73805;-67
2023/10/17 07:45:04;;;;;;;6.30;2.90;;;;;;;18.22;35.53;100448.83;107996;1257;70156;-67
2023/10/17 07:47:33;;;;;;;4.50;2.50;;;;;;;18.46;34.34;100447.98;107874;1254;180791;-66
2023/10/17 07:50:54;;;;;;;6.60;2.60;;;;;;;17.01;36.35;100451.14;104758;1293;600858;-66
2023/10/17 07:53:22;;;;;;;5.80;2.40;;;;;;;18.14;34.54;100450.95;107188;1267;60238;-67
2023/10/17 07:55:52;;;;;;;5.10;2.70;;;;;;;18.94;34.31;100452.52;107177;1272;59222;-67
2023/10/17 08:01:14;;;;;;;4.60;2.20;;;;;;;20.61;30.66;100448.17;107175;1267;70485;-66
2023/10/17 08:04:12;;;;;;;3.80;1.80;;;;;;;21.54;30.45;100452.62;107087;1263;166206;-65
2023/10/17 08:06:40;;;;;;;6.00;2.30;;;;;;;22.47;28.67;100459.56;107327;1263;60504;-66
2023/10/17 08:12:08;;;;;;;4.10;1.90;;;;;;;22.88;27.32;100461.52;107306;1264;71028;-67
2023/10/17 08:14:42;;;;;;;4.40;1.60;;;;;;;22.85;26.54;100458.20;107823;1257;69605;-66
2023/10/17 08:17:09;;;;;;;4.50;1.80;;;;;;;22.78;26.65;100461.26;107887;1257;70963;-66
2023/10/17 08:22:27;;;;;;;3.20;2.00;;;;;;;23.56;25.92;100454.20;107725;1257;60094;-67
2023/10/17 08:24:57;;;;;;;4.00;2.00;;;;;;;23.51;25.93;100459.65;108037;1253;71771;-66
2023/10/17 08:39:03;;;;;;;3.50;1.50;;;;;;;24.52;24.67;100468.23;104960;1289;601049;-67
2023/10/17 08:41:30;;;;;;;2.80;1.80;;;;;;;24.92;24.02;100465.14;107287;1264;60123;-67
2023/10/17 08:43:58;;;;;;;3.70;1.70;;;;;;;25.15;24.11;100461.33;107294;1269;60150;-66
2023/10/17 08:46:25;;;;;;;4.30;1.90;;;;;;;25.07;23.61;100462.14;107303;1264;74543;-67
2023/10/17 08:48:56;;;;;;;2.70;1.70;;;;;;;24.72;23.50;100461.17;107324;1264;70636;-67
2023/10/17 08:51:25;;;;;;;4.00;1.90;;;;;;;24.16;23.94;100462.95;107275;1264;71467;-66
2023/10/17 08:53:55;;;;;;;5.70;1.90;;;;;;;24.47;24.16;100463.25;107339;1264;60191;-67
2023/10/17 08:56:23;;;;;;;7.10;1.90;;;;;;;24.31;23.90;100468.84;107651;1260;59006;-67
2023/10/17 08:59:03;;;;;;;4.80;1.70;;;;;;;23.86;24.49;100472.23;107439;1259;70946;-67
2023/10/17 09:01:31;;;;;;;4.80;1.90;;;;;;;23.17;24.88;100474.20;107677;1260;70217;-66
2023/10/17 09:04:03;;;;;;;6.10;2.10;;;;;;;23.21;25.45;100479.17;107641;1260;73084;-67
2023/10/17 09:06:37;;;;;;;13.60;2.10;;;;;;;23.54;25.37;100473.13;107712;1259;59216;-66
2023/10/17 09:09:17;;;;;;;3.70;1.70;;;;;;;23.67;25.21;100475.45;107648;1260;60085;-67
2023/10/17 09:12:24;;;;;;;16.00;2.30;;;;;;;23.64;25.36;100476.08;107610;1260;73608;-67
2023/10/17 09:14:48;;;;;;;3.60;1.50;;;;;;;23.78;25.00;100478.08;107957;1260;70413;-67
2023/10/17 09:19:52;;;;;;;4.40;1.50;;;;;;;23.77;25.03;100481.44;107971;1256;60132;-67
2023/10/17 09:22:20;;;;;;;3.80;1.40;;;;;;;23.26;24.68;100482.40;107959;1254;59653;-66
2023/10/17 09:24:50;;;;;;;3.20;1.30;;;;;;;22.84;25.28;100483.17;107848;1257;73003;-67
2023/10/17 09:27:18;;;;;;;2.40;1.50;;;;;;;22.35;25.91;100481.30;108016;1260;68603;-67
2023/10/17 09:29:55;;;;;;;4.30;1.60;;;;;;;22.06;26.15;100478.19;108008;1256;74921;-67
2023/10/17 09:32:33;;;;;;;4.50;1.50;;;;;;;22.00;26.66;100475.07;108004;1257;59460;-67
2023/10/17 09:35:10;;;;;;;3.10;1.40;;;;;;;22.00;26.64;100471.67;107804;1256;60112;-68
2023/10/17 09:37:41;;;;;;;5.50;1.80;;;;;;;21.71;26.23;100468.25;107813;1257;73053;-67
2023/10/17 09:40:13;;;;;;;5.20;2.30;;;;;;;21.95;26.65;100464.25;107765;1261;69021;-66
2023/10/17 09:42:45;;;;;;;5.80;2.10;;;;;;;21.89;25.83;100460.17;107767;1257;71737;-66
2023/10/17 09:45:14;;;;;;;5.30;2.30;;;;;;;22.10;25.86;100453.76;107751;1257;59750;-66
2023/10/17 09:48:04;;;;;;;4.40;2.10;;;;;;;22.59;25.37;100453.92;107822;1256;59001;-67
2023/10/17 09:50:34;;;;;;;3.10;2.00;;;;;;;23.06;25.05;100446.05;107784;1257;72811;-66
2023/10/17 09:53:12;;;;;;;4.30;1.80;;;;;;;23.70;24.32;100448.17;107804;1257;72420;-67
2023/10/17 09:55:46;;;;;;;2.50;1.50;;;;;;;24.29;23.45;100447.85;107690;1257;72802;-67
2023/10/17 09:58:17;;;;;;;4.10;1.60;;;;;;;24.88;22.69;100439.45;107784;1257;59890;-67
2023/10/17 10:00:48;;;;;;;4.90;1.90;;;;;;;25.38;22.13;100439.86;108218;1251;59473;-67
2023/10/17 10:03:17;;;;;;;3.30;1.70;;;;;;;25.44;21.77;100438.52;108149;1251;71225;-67
2023/10/17 10:05:44;;;;;;;3.50;1.50;;;;;;;25.47;21.29;100439.73;108247;1251;72574;-67
2023/10/17 10:08:34;;;;;;;3.20;1.40;;;;;;;25.62;21.73;100438.30;108210;1251;74092;-67
2023/10/17 10:11:03;;;;;;;3.00;1.60;;;;;;;25.73;21.65;100438.14;108222;1253;60031;-67
2023/10/17 10:13:32;;;;;;;4.20;1.40;;;;;;;25.98;21.32;100442.92;108170;1256;62307;-68
2023/10/17 10:16:08;;;;;;;3.70;1.50;;;;;;;26.53;20.81;100443.15;108297;1251;71879;-67
2023/10/17 10:18:42;;;;;;;4.90;1.90;;;;;;;26.84;20.05;100438.75;108266;1251;70471;-68
2023/10/17 10:21:12;;;;;;;4.90;2.20;;;;;;;26.82;20.30;100435.71;108256;1251;71238;-67
2023/10/17 10:23:41;;;;;;;3.10;2.00;;;;;;;26.31;20.76;100442.59;108074;1253;60541;-67
2023/10/17 10:26:11;;;;;;;4.40;2.00;;;;;;;25.61;20.92;100438.34;108271;1256;59506;-65
2023/10/17 10:28:39;;;;;;;5.80;2.00;;;;;;;25.51;21.12;100442.01;108225;1251;75285;-67
2023/10/17 10:31:21;;;;;;;4.60;1.70;;;;;;;25.44;21.04;100439.22;108284;1251;69248;-67
2023/10/17 10:33:49;;;;;;;3.50;1.70;;;;;;;24.63;21.34;100438.27;108243;1251;74720;-67
2023/10/17 10:36:20;;;;;;;3.20;1.60;;;;;;;23.96;21.99;100447.83;108196;1256;60870;-66
2023/10/17 10:38:48;;;;;;;3.60;1.70;;;;;;;23.17;22.07;100444.63;108201;1256;59515;-67
2023/10/17 10:41:15;;;;;;;5.10;1.80;;;;;;;22.84;22.07;100447.86;108136;1253;74841;-66
2023/10/17 10:43:43;;;;;;;3.90;1.50;;;;;;;23.20;22.95;100437.54;108045;1254;68731;-67
2023/10/17 10:46:11;;;;;;;3.80;1.70;;;;;;;23.88;22.57;100434.38;108179;1254;72693;-67
2023/10/17 10:48:48;;;;;;;2.20;1.40;;;;;;;24.81;22.20;100433.18;108196;1253;59998;-67
2023/10/17 10:51:16;;;;;;;3.70;2.30;;;;;;;25.61;21.31;100429.20;108228;1253;60036;-67
2023/10/17 10:53:44;;;;;;;2.80;1.50;;;;;;;26.00;20.34;100436.22;108150;1254;71823;-67
2023/10/17 10:56:13;;;;;;;3.10;1.60;;;;;;;26.04;19.31;100435.36;108066;1254;71213;-67
2023/10/17 10:58:51;;;;;;;2.70;1.30;;;;;;;25.73;19.67;100435.36;108128;1253;75313;-67
2023/10/17 11:01:19;;;;;;;4.40;1.30;;;;;;;24.98;19.62;100439.55;108208;1252;59833;-67
2023/10/17 11:03:47;;;;;;;2.80;1.50;;;;;;;23.99;20.70;100442.02;108144;1254;60307;-67
2023/10/17 11:06:17;;;;;;;2.30;1.10;;;;;;;23.23;20.97;100448.89;108179;1253;71916;-67
2023/10/17 11:08:47;;;;;;;4.00;1.50;;;;;;;22.43;21.80;100447.84;108107;1253;70754;-66
2023/10/17 11:11:16;;;;;;;2.50;1.40;;;;;;;21.68;22.66;100444.55;108285;1254;74698;-68
2023/10/17 11:13:45;;;;;;;4.10;1.60;;;;;;;21.37;23.19;100442.62;108147;1256;60210;-68
2023/10/17 11:16:17;;;;;;;3.50;1.60;;;;;;;21.44;24.04;100437.59;108207;1253;59568;-67
2023/10/17 11:18:45;;;;;;;3.40;1.50;;;;;;;22.18;23.37;100433.77;108286;1253;73085;-67
2023/10/17 11:21:13;;;;;;;2.90;1.30;;;;;;;22.78;22.66;100425.48;108163;1252;68486;-66
2023/10/17 11:23:42;;;;;;;6.00;1.80;;;;;;;22.88;22.26;100424.85;108223;1254;71517;-67
2023/10/17 11:26:12;;;;;;;2.00;1.40;;;;;;;23.14;21.53;100422.27;108165;1253;60231;-66
2023/10/17 11:28:54;;;;;;;3.30;1.30;;;;;;;23.33;21.35;100425.89;108250;1256;59245;-67
2023/10/17 11:31:22;;;;;;;2.90;1.30;;;;;;;23.42;21.57;100422.21;108178;1254;72048;-65
2023/10/17 11:34:07;;;;;;;2.00;1.10;;;;;;;23.64;20.79;100428.59;108263;1252;71060;-67
2023/10/17 11:36:47;;;;;;;4.10;1.20;;;;;;;23.70;20.76;100425.56;108143;1252;72747;-67
2023/10/17 11:39:15;;;;;;;2.40;1.10;;;;;;;23.57;20.95;100428.27;108171;1254;61161;-68
2023/10/17 11:41:55;;;;;;;2.40;1.20;;;;;;;23.25;20.19;100436.08;108195;1252;60140;-68
2023/10/17 11:44:24;;;;;;;2.00;0.70;;;;;;;22.96;21.00;100433.49;108064;1254;73319;-67
2023/10/17 11:47:02;;;;;;;5.50;1.20;;;;;;;22.48;20.82;100430.44;108167;1253;69016;-67
2023/10/17 11:49:31;;;;;;;3.00;1.50;;;;;;;22.02;21.07;100435.98;108131;1254;72782;-67
2023/10/17 11:52:05;;;;;;;3.20;2.00;;;;;;;21.85;22.03;100435.88;108142;1253;60054;-67
2023/10/17 11:54:33;;;;;;;2.70;1.40;;;;;;;21.67;21.97;100433.17;108168;1254;59010;-67
2023/10/17 11:57:12;;;;;;;2.80;1.20;;;;;;;21.73;21.59;100429.84;108000;1259;75361;-68
2023/10/17 11:59:53;;;;;;;7.00;1.20;;;;;;;21.32;21.79;100431.95;108177;1252;69961;-67
2023/10/17 12:02:21;;;;;;;1.90;1.00;;;;;;;21.17;21.84;100433.48;108204;1256;72741;-67
2023/10/17 12:04:48;;;;;;;1.70;1.20;;;;;;;20.94;22.54;100432.67;108133;1254;59166;-67
2023/10/17 12:07:17;;;;;;;2.00;1.20;;;;;;;20.71;23.20;100437.98;108175;1252;60314;-68
2023/10/17 12:09:45;;;;;;;2.20;1.10;;;;;;;20.46;23.53;100448.57;108143;1254;73645;-67
2023/10/17 12:12:18;;;;;;;3.00;1.40;;;;;;;20.06;24.16;100450.18;108188;1253;70303;-67
2023/10/17 12:14:47;;;;;;;5.60;1.50;;;;;;;19.67;23.97;100452.95;108193;1253;74553;-67
2023/10/17 12:17:19;;;;;;;1.70;1.20;;;;;;;19.41;24.86;100452.89;108211;1253;60117;-67
2023/10/17 12:19:51;;;;;;;3.10;1.50;;;;;;;19.20;25.01;100449.55;108206;1256;59201;-66
2023/10/17 12:22:18;;;;;;;2.60;1.20;;;;;;;19.21;24.60;100447.16;108224;1256;71612;-65
2023/10/17 12:24:46;;;;;;;2.70;1.40;;;;;;;19.26;24.55;100446.48;108188;1256;69363;-66
2023/10/17 12:27:14;;;;;;;4.60;1.00;;;;;;;19.28;24.48;100445.11;108272;1254;74924;-66
2023/10/17 12:29:44;;;;;;;2.60;1.10;;;;;;;19.33;23.65;100441.37;108180;1253;61381;-67
2023/10/17 12:32:11;;;;;;;2.90;1.00;;;;;;;19.38;24.08;100441.20;108202;1252;59970;-68
2023/10/17 12:34:42;;;;;;;4.30;1.40;;;;;;;19.39;24.00;100435.56;108205;1253;71865;-67
2023/10/17 12:37:13;;;;;;;8.40;2.70;;;;;;;19.37;23.99;100436.67;108204;1253;69671;-67
2023/10/17 12:39:42;;;;;;;2.10;1.30;;;;;;;19.22;23.83;100432.70;108197;1253;72673;-63
2023/10/17 12:42:11;;;;;;;1.90;1.20;;;;;;;18.86;23.81;100446.85;108141;1254;61041;-65
2023/10/17 12:44:39;;;;;;;3.20;1.40;;;;;;;18.81;24.30;100445.55;108186;1253;59458;-67
2023/10/17 12:47:06;;;;;;;1.60;1.20;;;;;;;18.67;24.29;100447.34;108161;1252;72244;-67
2023/10/17 12:49:33;;;;;;;3.30;1.40;;;;;;;18.82;24.34;100440.87;108132;1254;70741;-66
2023/10/17 12:52:01;;;;;;;4.30;1.20;;;;;;;18.74;25.18;100441.58;108151;1254;71441;-66
2023/10/17 12:54:29;;;;;;;2.70;1.20;;;;;;;18.66;25.24;100444.39;108060;1254;61161;-66
2023/10/17 12:56:57;;;;;;;4.50;1.20;;;;;;;18.54;25.17;100442.90;108148;1254;61943;-66
2023/10/17 12:59:24;;;;;;;6.30;1.40;;;;;;;18.17;25.53;100448.45;108192;1253;73934;-67
2023/10/17 13:01:52;;;;;;;4.20;1.10;;;;;;;18.16;25.52;100450.66;108187;1254;72624;-66
2023/10/17 13:04:20;;;;;;;3.00;1.50;;;;;;;18.24;26.27;100448.19;108220;1254;73550;-68
2023/10/17 13:06:48;;;;;;;2.10;1.10;;;;;;;18.32;26.27;100450.90;108140;1254;60277;-67
2023/10/17 13:09:16;;;;;;;4.50;1.40;;;;;;;18.21;26.13;100452.29;108126;1253;60310;-67
2023/10/17 13:11:44;;;;;;;2.30;1.30;;;;;;;18.00;26.45;100451.46;108154;1252;75979;-66
2023/10/17 13:14:12;;;;;;;3.50;1.10;;;;;;;17.86;26.20;100453.74;108144;1253;69148;-66
2023/10/17 13:16:40;;;;;;;3.00;1.10;;;;;;;17.93;26.78;100452.30;108149;1254;74799;-66
2023/10/17 13:19:16;;;;;;;3.80;1.30;;;;;;;17.94;26.57;100448.50;108213;1253;60525;-66
2023/10/17 13:21:45;;;;;;;2.60;1.30;;;;;;;17.99;26.52;100447.98;108097;1256;59575;-66
2023/10/17 13:24:14;;;;;;;3.80;1.30;;;;;;;17.96;26.97;100444.99;108128;1254;75897;-66
2023/10/17 13:26:45;;;;;;;3.30;1.40;;;;;;;17.82;26.79;100449.20;108186;1254;70650;-66
2023/10/17 13:29:13;;;;;;;2.10;1.20;;;;;;;17.85;27.45;100449.95;108144;1253;72410;-66
2023/10/17 13:31:40;;;;;;;3.50;1.80;;;;;;;17.85;27.85;100451.55;108115;1255;60473;-66
2023/10/17 13:34:07;;;;;;;3.10;1.50;;;;;;;17.84;27.15;100454.07;108158;1253;60495;-66
2023/10/17 13:36:35;;;;;;;2.80;1.30;;;;;;;17.60;27.87;100451.40;108162;1254;73669;-66
2023/10/17 13:39:05;;;;;;;4.80;1.30;;;;;;;17.86;27.43;100450.75;108134;1255;69219;-67
2023/10/17 13:41:33;;;;;;;3.20;1.30;;;;;;;17.92;27.42;100448.61;108155;1254;71246;-66
2023/10/17 13:44:00;;;;;;;2.70;1.40;;;;;;;17.82;27.81;100448.13;108192;1253;60366;-66
2023/10/17 13:46:32;;;;;;;3.10;1.50;;;;;;;17.75;27.95;100451.20;108131;1254;60755;-66
2023/10/17 13:49:00;;;;;;;6.00;1.80;;;;;;;17.66;28.45;100445.58;108124;1252;74333;-66
2023/10/17 13:51:34;;;;;;;7.20;1.50;;;;;;;17.55;28.36;100442.70;108161;1254;72295;-66
2023/10/17 13:54:05;;;;;;;3.70;1.60;;;;;;;17.42;28.28;100442.04;108260;1252;72946;-66
2023/10/17 13:56:33;;;;;;;3.00;1.40;;;;;;;17.25;28.74;100442.52;108140;1252;60325;-66
2023/10/17 13:59:03;;;;;;;4.90;1.60;;;;;;;17.12;28.95;100441.58;108164;1254;60434;-66